4°C Temp
3°C Dewpoint
93% Humidity
Temperature
27 KM/H
17 MPH
15 KTS
180°
Due South

Wind Speed
Light Rain
Showers
Pressure 1008.92 (hPa) - 29.79 (in)
Visibility 3.1 (mi) - 5.0 (km)

Current Conditions
EGNJ
Location 20(mi)
Metar :EGNJ 261920Z AUTO 18015KT 5000 RA OVC004/// 04/03 Q1009 REDZ
Tue 26th January 20:20 pm

Airport
  Metar Aviation API Data Provided by https://www.checkwx.com/ PHP scripts by weather34.com ©2021